Time;durP1;ratioP1;P1;durP2;ratioP2;P2;SDS_P1;SDS_P2;PMS_P1;PMS_P2;Temp;Humidity;BMP_temperature;BMP_pressure;BME280_temperature;BME280_humidity;BME280_pressure;Samples;Min_cycle;Max_cycle;Signal;HPM_P1;HPM_P2
2024/01/31 00:01:17;;;;;;;7.60;4.22;;;;;;;;;;5263193;28;20388;-78
2024/01/31 00:03:48;;;;;;;7.00;4.03;;;;;;;;;;5262515;28;20009;-77
2024/01/31 00:06:19;;;;;;;9.43;4.35;;;;;;;;;;5263136;28;20124;-77
2024/01/31 00:08:50;;;;;;;9.73;4.18;;;;;;;;;;5263084;28;20025;-77
2024/01/31 00:11:22;;;;;;;9.07;3.75;;;;;;;;;;5262022;28;20070;-78
2024/01/31 00:13:53;;;;;;;8.40;3.47;;;;;;;;;;5263136;28;20037;-77
2024/01/31 00:16:24;;;;;;;10.23;3.55;;;;;;;;;;5262134;28;20025;-77
2024/01/31 00:18:55;;;;;;;5.72;3.38;;;;;;;;;;5263298;28;20192;-77
2024/01/31 00:21:27;;;;;;;6.20;3.58;;;;;;;;;;5262617;28;20101;-77
2024/01/31 00:23:58;;;;;;;7.82;3.00;;;;;;;;;;5261350;28;20044;-77
2024/01/31 00:26:29;;;;;;;13.32;3.50;;;;;;;;;;5262783;28;20021;-77
2024/01/31 00:29:00;;;;;;;7.28;3.10;;;;;;;;;;5262677;28;20074;-78
2024/01/31 00:31:33;;;;;;;9.80;3.68;;;;;;;;;;5261767;28;20494;-77
2024/01/31 00:34:04;;;;;;;5.20;3.15;;;;;;;;;;5262635;28;20482;-77
2024/01/31 00:36:35;;;;;;;9.15;2.85;;;;;;;;;;5262409;28;20095;-77
2024/01/31 00:39:06;;;;;;;6.85;2.63;;;;;;;;;;5261944;28;20075;-77
2024/01/31 00:41:37;;;;;;;5.00;2.47;;;;;;;;;;5262512;28;20021;-77
2024/01/31 00:44:08;;;;;;;8.20;2.53;;;;;;;;;;5262626;28;20072;-77
2024/01/31 00:46:40;;;;;;;6.78;2.17;;;;;;;;;;5261598;28;20020;-77
2024/01/31 00:49:11;;;;;;;8.63;2.85;;;;;;;;;;5262121;28;20021;-77
2024/01/31 00:51:43;;;;;;;7.00;1.88;;;;;;;;;;5261572;28;20028;-77
2024/01/31 00:54:15;;;;;;;5.13;1.80;;;;;;;;;;5262116;28;20441;-77
2024/01/31 00:56:46;;;;;;;5.78;1.48;;;;;;;;;;5261747;28;20059;-77
2024/01/31 00:59:18;;;;;;;5.25;1.70;;;;;;;;;;5261200;28;20479;-77
2024/01/31 01:01:49;;;;;;;6.40;2.40;;;;;;;;;;5262026;28;20097;-77
2024/01/31 01:04:20;;;;;;;5.03;1.83;;;;;;;;;;5262037;28;20427;-77
2024/01/31 01:06:51;;;;;;;8.93;1.88;;;;;;;;;;5261214;28;20079;-77
2024/01/31 01:09:23;;;;;;;6.57;1.80;;;;;;;;;;5261562;28;20029;-77
2024/01/31 01:11:54;;;;;;;7.65;1.92;;;;;;;;;;5261936;28;20123;-78
2024/01/31 01:14:25;;;;;;;7.85;2.30;;;;;;;;;;5260193;28;20460;-79
2024/01/31 01:16:56;;;;;;;5.68;1.92;;;;;;;;;;5261533;28;20029;-79
2024/01/31 01:19:27;;;;;;;5.30;1.52;;;;;;;;;;5261402;28;20029;-78
2024/01/31 01:22:00;;;;;;;5.45;2.00;;;;;;;;;;5260794;28;20041;-77
2024/01/31 01:24:31;;;;;;;6.50;2.42;;;;;;;;;;5261228;28;20480;-77
2024/01/31 01:27:02;;;;;;;6.93;1.80;;;;;;;;;;5260746;28;20028;-78
2024/01/31 01:29:33;;;;;;;7.05;1.50;;;;;;;;;;5261177;28;20112;-77
2024/01/31 01:32:05;;;;;;;6.40;1.10;;;;;;;;;;5261334;28;20025;-78
2024/01/31 01:34:37;;;;;;;5.07;0.82;;;;;;;;;;5260062;28;20079;-77
2024/01/31 01:37:08;;;;;;;7.30;1.20;;;;;;;;;;5260418;28;20543;-78
2024/01/31 01:39:39;;;;;;;4.15;0.82;;;;;;;;;;5261067;28;20100;-77
2024/01/31 01:42:11;;;;;;;3.78;0.70;;;;;;;;;;5260532;28;20476;-78
2024/01/31 01:44:44;;;;;;;7.30;1.10;;;;;;;;;;5261167;28;20095;-78
2024/01/31 01:47:16;;;;;;;9.00;0.80;;;;;;;;;;5261167;28;20523;-77
2024/01/31 01:49:48;;;;;;;5.60;0.70;;;;;;;;;;5260385;28;20013;-78
2024/01/31 01:52:19;;;;;;;5.00;0.73;;;;;;;;;;5260973;28;20052;-78
2024/01/31 01:54:50;;;;;;;5.85;1.35;;;;;;;;;;5259866;28;20477;-77
2024/01/31 01:57:21;;;;;;;7.70;1.33;;;;;;;;;;5260312;28;20048;-78
2024/01/31 01:59:52;;;;;;;6.38;1.00;;;;;;;;;;5261015;28;20033;-78
2024/01/31 02:02:24;;;;;;;4.93;1.13;;;;;;;;;;5259857;28;20037;-78
2024/01/31 02:04:55;;;;;;;5.55;0.90;;;;;;;;;;5261297;28;20029;-78
2024/01/31 02:07:27;;;;;;;5.82;0.90;;;;;;;;;;5260652;28;20048;-78
2024/01/31 02:09:59;;;;;;;6.43;1.38;;;;;;;;;;5259975;28;20055;-77
2024/01/31 02:12:30;;;;;;;6.22;0.70;;;;;;;;;;5260486;28;20025;-78
2024/01/31 02:15:01;;;;;;;4.22;0.70;;;;;;;;;;5260840;28;20039;-78
2024/01/31 02:17:33;;;;;;;3.85;0.75;;;;;;;;;;5259995;28;20005;-77
2024/01/31 02:20:04;;;;;;;4.18;0.77;;;;;;;;;;5260830;28;20067;-78
2024/01/31 02:22:35;;;;;;;3.40;0.82;;;;;;;;;;5260821;28;20044;-78
2024/01/31 02:25:13;;;;;;;5.53;1.35;;;;;;;;;;5259843;28;20048;-78
2024/01/31 02:27:44;;;;;;;3.72;0.75;;;;;;;;;;5260307;28;20060;-78
2024/01/31 02:30:16;;;;;;;6.57;0.90;;;;;;;;;;5259842;28;20449;-77
2024/01/31 02:32:47;;;;;;;5.13;1.20;;;;;;;;;;5260470;28;20028;-77
2024/01/31 02:35:18;;;;;;;4.60;0.98;;;;;;;;;;5260484;28;20028;-77
2024/01/31 02:37:49;;;;;;;5.68;0.80;;;;;;;;;;5260031;28;20027;-77
2024/01/31 02:40:22;;;;;;;5.43;0.88;;;;;;;;;;5260405;28;20032;-77
2024/01/31 02:42:53;;;;;;;4.18;1.20;;;;;;;;;;5260855;28;20013;-77
2024/01/31 02:45:24;;;;;;;4.75;0.95;;;;;;;;;;5259486;28;20024;-77
2024/01/31 02:47:55;;;;;;;5.40;1.00;;;;;;;;;;5263423;28;20025;-77
2024/01/31 02:50:30;;;;;;;6.55;1.30;;;;;;;;;;5264319;28;20025;-77
2024/01/31 02:53:01;;;;;;;3.47;0.90;;;;;;;;;;5263458;28;20079;-77
2024/01/31 02:55:32;;;;;;;6.72;1.30;;;;;;;;;;5264223;28;20472;-77
2024/01/31 02:58:03;;;;;;;5.80;1.30;;;;;;;;;;5263525;28;20017;-77
2024/01/31 03:00:35;;;;;;;4.45;1.10;;;;;;;;;;5264181;28;20021;-77
2024/01/31 03:03:06;;;;;;;5.90;1.45;;;;;;;;;;5264600;28;20032;-77
2024/01/31 03:05:37;;;;;;;7.85;1.70;;;;;;;;;;5263321;28;20021;-77
2024/01/31 03:08:08;;;;;;;5.75;1.17;;;;;;;;;;5264272;28;20460;-77
2024/01/31 03:10:44;;;;;;;6.65;1.40;;;;;;;;;;5264143;28;20391;-77
2024/01/31 03:13:15;;;;;;;6.47;1.88;;;;;;;;;;5263129;28;20056;-77
2024/01/31 03:15:46;;;;;;;7.97;1.98;;;;;;;;;;5264123;28;20053;-77
2024/01/31 03:18:17;;;;;;;10.65;2.38;;;;;;;;;;5264121;28;20017;-77
2024/01/31 03:20:54;;;;;;;4.75;1.25;;;;;;;;;;5263082;28;20029;-78
2024/01/31 03:23:25;;;;;;;4.13;1.23;;;;;;;;;;5263338;28;20029;-77
2024/01/31 03:25:57;;;;;;;6.30;1.55;;;;;;;;;;5263937;28;20361;-77
2024/01/31 03:28:28;;;;;;;5.88;1.65;;;;;;;;;;5262849;28;20020;-77
2024/01/31 03:30:59;;;;;;;6.20;1.73;;;;;;;;;;5263948;28;20089;-77
2024/01/31 03:33:30;;;;;;;4.30;1.60;;;;;;;;;;5262723;28;20040;-77
2024/01/31 03:36:02;;;;;;;5.53;1.67;;;;;;;;;;5263668;28;20471;-77
2024/01/31 03:38:33;;;;;;;6.90;2.17;;;;;;;;;;5263715;28;20096;-78
2024/01/31 03:41:05;;;;;;;6.82;2.47;;;;;;;;;;5262722;28;20025;-77
2024/01/31 03:43:36;;;;;;;9.63;3.05;;;;;;;;;;5263233;28;20087;-77
2024/01/31 03:46:07;;;;;;;7.60;2.53;;;;;;;;;;5263470;28;20472;-77
2024/01/31 03:48:38;;;;;;;5.30;2.20;;;;;;;;;;5262876;28;20401;-78
2024/01/31 03:51:22;;;;;;;8.45;2.90;;;;;;;;;;5263649;28;20025;-78
2024/01/31 03:53:53;;;;;;;6.60;2.67;;;;;;;;;;5263627;28;20392;-77
2024/01/31 03:56:25;;;;;;;7.20;3.15;;;;;;;;;;5261887;28;20064;-78
2024/01/31 03:58:56;;;;;;;7.75;3.63;;;;;;;;;;5262326;28;20475;-78
2024/01/31 04:01:27;;;;;;;6.53;3.13;;;;;;;;;;5262602;28;20017;-77
2024/01/31 04:03:58;;;;;;;13.48;3.33;;;;;;;;;;5263209;28;20035;-78
2024/01/31 04:06:29;;;;;;;6.35;3.40;;;;;;;;;;5262484;28;20013;-79
2024/01/31 04:09:01;;;;;;;9.50;3.60;;;;;;;;;;5262379;28;20467;-79
2024/01/31 04:11:34;;;;;;;9.02;3.65;;;;;;;;;;5262811;28;20013;-78
2024/01/31 04:14:05;;;;;;;9.90;3.80;;;;;;;;;;5262504;28;20116;-79
2024/01/31 04:16:36;;;;;;;14.13;4.50;;;;;;;;;;5261722;28;20599;-79
2024/01/31 04:19:07;;;;;;;9.90;3.95;;;;;;;;;;5262564;28;20029;-78
2024/01/31 04:21:39;;;;;;;14.80;4.53;;;;;;;;;;5262744;28;20021;-79
2024/01/31 04:24:10;;;;;;;10.93;4.40;;;;;;;;;;5262188;28;20358;-79
2024/01/31 04:26:42;;;;;;;10.57;4.35;;;;;;;;;;5262865;28;20032;-78
2024/01/31 04:29:13;;;;;;;10.05;4.47;;;;;;;;;;5262663;28;20024;-78
2024/01/31 04:31:49;;;;;;;9.48;4.40;;;;;;;;;;5261797;28;20021;-79
2024/01/31 04:34:20;;;;;;;8.30;4.15;;;;;;;;;;5262354;28;20032;-79
2024/01/31 04:36:52;;;;;;;8.88;5.13;;;;;;;;;;5262090;28;20028;-79
2024/01/31 04:39:23;;;;;;;9.77;5.25;;;;;;;;;;5262363;28;20092;-79
2024/01/31 04:41:54;;;;;;;11.02;5.47;;;;;;;;;;5262865;28;20062;-78
2024/01/31 04:44:25;;;;;;;8.82;4.72;;;;;;;;;;5261286;28;20017;-79
2024/01/31 04:46:56;;;;;;;11.43;5.28;;;;;;;;;;5262329;28;20060;-78
2024/01/31 04:49:27;;;;;;;10.20;5.07;;;;;;;;;;5262289;28;20033;-78
2024/01/31 04:51:59;;;;;;;9.70;5.63;;;;;;;;;;5261493;28;20021;-78
2024/01/31 04:54:30;;;;;;;12.30;6.35;;;;;;;;;;5262053;28;20124;-79
2024/01/31 04:57:01;;;;;;;12.57;5.90;;;;;;;;;;5261869;28;20439;-78
2024/01/31 04:59:36;;;;;;;16.45;6.20;;;;;;;;;;5261504;28;20021;-79
2024/01/31 05:02:08;;;;;;;12.95;6.55;;;;;;;;;;5262108;28;20422;-78
2024/01/31 05:04:42;;;;;;;11.43;5.55;;;;;;;;;;5261336;28;20017;-79
2024/01/31 05:07:13;;;;;;;9.43;5.43;;;;;;;;;;5262284;28;20009;-78
2024/01/31 05:09:44;;;;;;;12.45;5.88;;;;;;;;;;5261769;28;20423;-78
2024/01/31 05:12:15;;;;;;;8.00;5.95;;;;;;;;;;5260961;28;20090;-78
2024/01/31 05:14:46;;;;;;;14.93;6.43;;;;;;;;;;5261540;28;20119;-78
2024/01/31 05:17:18;;;;;;;12.18;5.52;;;;;;;;;;5261632;28;20588;-79
2024/01/31 05:19:49;;;;;;;11.77;5.55;;;;;;;;;;5260698;28;20029;-79
2024/01/31 05:22:20;;;;;;;12.00;6.65;;;;;;;;;;5261456;28;20353;-78
2024/01/31 05:24:51;;;;;;;10.80;6.60;;;;;;;;;;5261533;28;20083;-78
2024/01/31 05:27:22;;;;;;;13.13;6.60;;;;;;;;;;5259998;28;20025;-79
2024/01/31 05:29:54;;;;;;;13.43;7.38;;;;;;;;;;5261680;28;20424;-79
2024/01/31 05:32:25;;;;;;;9.50;6.80;;;;;;;;;;5260788;28;20025;-79
2024/01/31 05:34:56;;;;;;;12.26;7.72;;;;;;;;;;5260650;28;20033;-78
2024/01/31 05:37:27;;;;;;;13.10;6.93;;;;;;;;;;5261153;28;20013;-78
2024/01/31 05:39:58;;;;;;;10.88;6.68;;;;;;;;;;5260426;28;20036;-78
2024/01/31 05:42:30;;;;;;;11.43;6.28;;;;;;;;;;5260779;28;20013;-79
2024/01/31 05:45:01;;;;;;;9.23;6.95;;;;;;;;;;5261017;28;20047;-78
2024/01/31 05:47:32;;;;;;;11.48;7.30;;;;;;;;;;5260493;28;20025;-79
2024/01/31 05:50:03;;;;;;;11.10;6.32;;;;;;;;;;5261345;28;20025;-78
2024/01/31 05:52:35;;;;;;;12.15;6.85;;;;;;;;;;5261418;28;20017;-79
2024/01/31 05:55:06;;;;;;;11.20;6.88;;;;;;;;;;5260018;28;20060;-78
2024/01/31 05:57:37;;;;;;;14.05;8.35;;;;;;;;;;5261038;28;20507;-78
2024/01/31 06:00:10;;;;;;;13.25;8.05;;;;;;;;;;5260948;28;20017;-78
2024/01/31 06:02:42;;;;;;;12.05;8.10;;;;;;;;;;5260215;28;20082;-78
2024/01/31 06:05:13;;;;;;;15.15;8.80;;;;;;;;;;5260906;28;20017;-79
2024/01/31 06:07:44;;;;;;;11.73;7.30;;;;;;;;;;5260899;28;20021;-78
2024/01/31 06:10:15;;;;;;;12.55;7.63;;;;;;;;;;5260007;28;20032;-78
2024/01/31 06:12:47;;;;;;;12.13;7.45;;;;;;;;;;5260955;28;20111;-78
2024/01/31 06:15:18;;;;;;;12.60;8.20;;;;;;;;;;5259871;28;20028;-79
2024/01/31 06:17:49;;;;;;;20.98;8.48;;;;;;;;;;5261142;28;20036;-79
2024/01/31 06:20:20;;;;;;;13.52;7.85;;;;;;;;;;5260423;28;20029;-79
2024/01/31 06:22:51;;;;;;;12.50;7.93;;;;;;;;;;5265427;28;20021;-78
2024/01/31 06:25:23;;;;;;;15.07;8.95;;;;;;;;;;5267186;28;20021;-78
2024/01/31 06:27:54;;;;;;;14.50;8.95;;;;;;;;;;5268046;28;20420;-79
2024/01/31 06:30:31;;;;;;;13.70;8.52;;;;;;;;;;5266333;28;20024;-79
2024/01/31 06:33:06;;;;;;;12.98;9.25;;;;;;;;;;5267134;28;20028;-78
2024/01/31 06:35:40;;;;;;;17.95;10.38;;;;;;;;;;5267297;28;20094;-78
2024/01/31 06:38:11;;;;;;;15.85;9.82;;;;;;;;;;5266718;28;20032;-78
2024/01/31 06:40:42;;;;;;;13.68;9.63;;;;;;;;;;5267539;28;20024;-78
2024/01/31 06:43:13;;;;;;;13.93;10.07;;;;;;;;;;5266397;28;20017;-79
2024/01/31 06:45:47;;;;;;;16.17;9.93;;;;;;;;;;5266591;28;20111;-78
2024/01/31 06:48:18;;;;;;;13.05;9.82;;;;;;;;;;5267123;28;20024;-78
2024/01/31 06:50:50;;;;;;;15.02;9.80;;;;;;;;;;5266542;28;20013;-78
2024/01/31 06:53:21;;;;;;;16.17;11.32;;;;;;;;;;5266872;28;20086;-78
2024/01/31 06:55:52;;;;;;;17.98;10.80;;;;;;;;;;5267377;28;20037;-80
2024/01/31 06:58:24;;;;;;;13.82;10.65;;;;;;;;;;5266338;28;20033;-79
2024/01/31 07:00:59;;;;;;;17.02;11.65;;;;;;;;;;5267568;28;20067;-79
2024/01/31 07:03:30;;;;;;;16.52;10.45;;;;;;;;;;5267070;28;20031;-78
2024/01/31 07:06:02;;;;;;;16.80;11.68;;;;;;;;;;5266201;28;20021;-77
2024/01/31 07:08:33;;;;;;;16.67;11.35;;;;;;;;;;5267136;28;20021;-78
2024/01/31 07:11:08;;;;;;;16.58;11.38;;;;;;;;;;5266802;28;20032;-77
2024/01/31 07:13:39;;;;;;;16.15;11.07;;;;;;;;;;5265948;28;20029;-77
2024/01/31 07:16:10;;;;;;;15.40;11.32;;;;;;;;;;5266477;28;20023;-78
2024/01/31 07:18:43;;;;;;;17.95;11.07;;;;;;;;;;5265729;28;20109;-77
2024/01/31 07:21:22;;;;;;;20.23;12.10;;;;;;;;;;5266434;28;20021;-77
2024/01/31 07:23:54;;;;;;;17.65;11.65;;;;;;;;;;5267058;28;20025;-77
2024/01/31 07:26:28;;;;;;;20.27;12.07;;;;;;;;;;5265331;28;20021;-77
2024/01/31 07:28:59;;;;;;;16.70;10.95;;;;;;;;;;5266470;28;20036;-77
2024/01/31 07:31:31;;;;;;;16.35;10.40;;;;;;;;;;5266639;28;20029;-77
2024/01/31 07:34:02;;;;;;;18.35;11.50;;;;;;;;;;5263379;28;20043;-77
2024/01/31 07:36:33;;;;;;;15.00;11.20;;;;;;;;;;5263265;28;20024;-77
2024/01/31 07:39:05;;;;;;;16.52;11.13;;;;;;;;;;5263156;28;20035;-78
2024/01/31 07:41:36;;;;;;;19.42;12.25;;;;;;;;;;5262667;28;20021;-77
2024/01/31 07:44:07;;;;;;;18.58;12.27;;;;;;;;;;5263181;28;20484;-77
2024/01/31 07:46:39;;;;;;;18.77;12.05;;;;;;;;;;5262859;28;20017;-77
2024/01/31 07:49:11;;;;;;;17.38;11.77;;;;;;;;;;5262901;28;20021;-77
2024/01/31 07:51:43;;;;;;;20.33;11.57;;;;;;;;;;5262491;28;20017;-77
2024/01/31 07:54:15;;;;;;;17.05;12.65;;;;;;;;;;5262163;28;20427;-77
2024/01/31 07:56:47;;;;;;;20.15;12.93;;;;;;;;;;5263042;28;20397;-76
2024/01/31 07:59:18;;;;;;;17.42;12.27;;;;;;;;;;5262885;28;20021;-77
2024/01/31 08:01:51;;;;;;;17.55;12.45;;;;;;;;;;5262302;28;20120;-77
2024/01/31 08:04:22;;;;;;;18.90;12.23;;;;;;;;;;5262524;28;20112;-77
2024/01/31 08:06:54;;;;;;;20.00;12.84;;;;;;;;;;5263163;28;20053;-77
2024/01/31 08:09:25;;;;;;;17.35;11.43;;;;;;;;;;5261781;28;20028;-77
2024/01/31 08:11:56;;;;;;;26.02;14.20;;;;;;;;;;5262912;28;20018;-76
2024/01/31 08:14:28;;;;;;;20.70;13.27;;;;;;;;;;5262458;28;20039;-76
2024/01/31 08:16:59;;;;;;;22.45;13.93;;;;;;;;;;5261614;28;20036;-76
2024/01/31 08:19:30;;;;;;;21.88;14.00;;;;;;;;;;5262734;28;20029;-76
2024/01/31 08:22:01;;;;;;;20.23;14.73;;;;;;;;;;5261722;28;20021;-76
2024/01/31 08:24:33;;;;;;;17.73;13.13;;;;;;;;;;5262452;28;20380;-75
2024/01/31 08:27:04;;;;;;;19.98;13.55;;;;;;;;;;5262002;28;20482;-77
2024/01/31 08:29:35;;;;;;;22.05;14.23;;;;;;;;;;5261477;28;20431;-76
2024/01/31 08:32:06;;;;;;;19.58;12.95;;;;;;;;;;5262204;28;20044;-76
2024/01/31 08:34:38;;;;;;;20.30;14.32;;;;;;;;;;5262435;28;20459;-76
2024/01/31 08:37:09;;;;;;;25.40;15.43;;;;;;;;;;5261062;28;20096;-73
2024/01/31 08:39:41;;;;;;;25.17;14.98;;;;;;;;;;5262144;28;20210;-74
2024/01/31 08:42:12;;;;;;;21.67;13.98;;;;;;;;;;5261942;28;20043;-73
2024/01/31 08:44:43;;;;;;;31.48;17.15;;;;;;;;;;5260843;28;20419;-74
2024/01/31 08:47:14;;;;;;;25.92;15.20;;;;;;;;;;5262096;28;20021;-74
2024/01/31 08:49:47;;;;;;;23.95;15.75;;;;;;;;;;5257400;28;20017;-74
2024/01/31 08:52:19;;;;;;;26.13;16.05;;;;;;;;;;5261584;28;20017;-73
2024/01/31 08:54:50;;;;;;;27.13;15.02;;;;;;;;;;5259500;28;20032;-74
2024/01/31 08:57:21;;;;;;;22.98;15.75;;;;;;;;;;5258282;28;20045;-75
2024/01/31 08:59:53;;;;;;;25.50;16.80;;;;;;;;;;5259949;28;20431;-75
2024/01/31 09:02:24;;;;;;;24.75;14.90;;;;;;;;;;5258324;28;20021;-75
2024/01/31 09:04:55;;;;;;;26.83;16.40;;;;;;;;;;5257906;28;20028;-74
2024/01/31 09:07:26;;;;;;;27.95;16.70;;;;;;;;;;5259045;28;20079;-74
2024/01/31 09:09:57;;;;;;;26.13;16.65;;;;;;;;;;5261736;28;20025;-79
2024/01/31 09:12:29;;;;;;;22.67;15.90;;;;;;;;;;5260591;28;20012;-76
2024/01/31 09:15:01;;;;;;;24.00;16.05;;;;;;;;;;5261297;28;20392;-77
2024/01/31 09:17:32;;;;;;;23.73;16.63;;;;;;;;;;5261141;28;20016;-76
2024/01/31 09:20:03;;;;;;;27.63;17.58;;;;;;;;;;5260143;28;20029;-76
2024/01/31 09:22:34;;;;;;;28.38;17.35;;;;;;;;;;5261388;28;20029;-77
2024/01/31 09:25:06;;;;;;;26.65;17.83;;;;;;;;;;5260612;28;20057;-77
2024/01/31 09:27:37;;;;;;;24.45;18.30;;;;;;;;;;5261258;28;20427;-79
2024/01/31 09:30:08;;;;;;;28.75;18.92;;;;;;;;;;5261354;28;20032;-77
2024/01/31 09:32:39;;;;;;;26.27;18.30;;;;;;;;;;5260486;28;20101;-77
2024/01/31 09:35:11;;;;;;;27.82;19.04;;;;;;;;;;5260851;28;20064;-77
2024/01/31 09:37:42;;;;;;;26.80;18.10;;;;;;;;;;5262082;28;20460;-77
2024/01/31 09:40:17;;;;;;;29.88;19.55;;;;;;;;;;5262249;28;20017;-78
2024/01/31 09:42:51;;;;;;;28.88;19.30;;;;;;;;;;5261453;28;20033;-78
2024/01/31 09:45:27;;;;;;;29.48;20.02;;;;;;;;;;5261011;28;20082;-79
2024/01/31 09:47:59;;;;;;;28.17;19.30;;;;;;;;;;5260293;28;20445;-77
2024/01/31 09:50:30;;;;;;;25.92;20.10;;;;;;;;;;5260782;28;20084;-79
2024/01/31 09:53:01;;;;;;;23.73;18.15;;;;;;;;;;5260117;28;20017;-78
2024/01/31 09:55:34;;;;;;;25.90;19.10;;;;;;;;;;5260895;28;20026;-79
2024/01/31 09:58:05;;;;;;;23.75;17.17;;;;;;;;;;5260367;28;20057;-78
2024/01/31 10:00:37;;;;;;;24.63;16.83;;;;;;;;;;5260269;28;20063;-78
2024/01/31 10:03:09;;;;;;;23.58;17.15;;;;;;;;;;5260779;28;20025;-78
2024/01/31 10:05:40;;;;;;;22.65;16.40;;;;;;;;;;5260714;28;20021;-78
2024/01/31 10:08:11;;;;;;;22.67;16.73;;;;;;;;;;5259974;28;20472;-78
2024/01/31 10:10:43;;;;;;;19.77;14.60;;;;;;;;;;5261063;28;20053;-78
2024/01/31 10:13:14;;;;;;;21.35;14.85;;;;;;;;;;5260808;28;20029;-75
2024/01/31 10:15:45;;;;;;;18.98;14.73;;;;;;;;;;5259885;28;20017;-78
2024/01/31 10:18:17;;;;;;;19.42;13.85;;;;;;;;;;5260555;28;20025;-76
2024/01/31 10:20:51;;;;;;;15.45;13.60;;;;;;;;;;5260766;28;20169;-76
2024/01/31 10:23:23;;;;;;;16.83;13.02;;;;;;;;;;5259257;28;20025;-76
2024/01/31 10:25:55;;;;;;;16.73;12.70;;;;;;;;;;5260886;28;20043;-76
2024/01/31 10:28:27;;;;;;;16.70;12.45;;;;;;;;;;5259489;28;20028;-76
2024/01/31 10:30:58;;;;;;;17.60;12.88;;;;;;;;;;5260803;28;20016;-76
2024/01/31 10:33:31;;;;;;;13.75;11.77;;;;;;;;;;5260415;28;20029;-73
2024/01/31 10:36:02;;;;;;;14.98;12.10;;;;;;;;;;5259902;28;20088;-73
2024/01/31 10:38:34;;;;;;;14.27;10.75;;;;;;;;;;5260544;28;20166;-72
2024/01/31 10:41:08;;;;;;;13.80;10.60;;;;;;;;;;5260314;28;20107;-73
2024/01/31 10:43:40;;;;;;;13.40;10.02;;;;;;;;;;5259757;28;20388;-74
2024/01/31 10:46:11;;;;;;;12.30;9.40;;;;;;;;;;5260223;28;20028;-74
2024/01/31 10:48:42;;;;;;;12.38;9.85;;;;;;;;;;5260284;28;20384;-72
2024/01/31 10:51:13;;;;;;;13.88;10.63;;;;;;;;;;5259317;28;20025;-71
2024/01/31 10:53:45;;;;;;;12.30;8.70;;;;;;;;;;5260375;28;20460;-72
2024/01/31 10:56:17;;;;;;;13.20;10.15;;;;;;;;;;5259605;28;20051;-75
2024/01/31 10:58:49;;;;;;;11.30;8.13;;;;;;;;;;5260000;28;20120;-76
2024/01/31 11:01:20;;;;;;;14.02;9.20;;;;;;;;;;5259981;28;20104;-75
2024/01/31 11:03:51;;;;;;;10.05;8.55;;;;;;;;;;5259315;28;20035;-76
2024/01/31 11:06:23;;;;;;;11.40;9.32;;;;;;;;;;5259880;28;20083;-77
2024/01/31 11:08:54;;;;;;;11.88;9.25;;;;;;;;;;5262902;28;20045;-76
2024/01/31 11:11:26;;;;;;;10.10;8.45;;;;;;;;;;5263023;28;20020;-75
2024/01/31 11:14:06;;;;;;;10.43;8.88;;;;;;;;;;5263829;28;20083;-75
2024/01/31 11:16:38;;;;;;;12.02;9.40;;;;;;;;;;5263706;28;20017;-76
2024/01/31 11:19:16;;;;;;;11.63;9.07;;;;;;;;;;5263066;28;20063;-76
2024/01/31 11:21:47;;;;;;;12.30;9.70;;;;;;;;;;5263907;28;20056;-76
2024/01/31 11:24:22;;;;;;;10.30;8.85;;;;;;;;;;5263681;28;20041;-76
2024/01/31 11:26:53;;;;;;;12.50;9.50;;;;;;;;;;5263230;28;20013;-76
2024/01/31 11:29:25;;;;;;;13.13;9.65;;;;;;;;;;5263554;28;20031;-74
2024/01/31 11:31:57;;;;;;;14.57;10.65;;;;;;;;;;5263243;28;20078;-74
2024/01/31 11:34:28;;;;;;;13.75;10.68;;;;;;;;;;5263722;28;20045;-75
2024/01/31 11:37:00;;;;;;;9.98;8.82;;;;;;;;;;5263514;28;20471;-73
2024/01/31 11:39:31;;;;;;;12.70;9.93;;;;;;;;;;5263256;28;20043;-73
2024/01/31 11:42:03;;;;;;;12.45;10.63;;;;;;;;;;5263971;28;20100;-73
2024/01/31 11:44:35;;;;;;;11.48;9.63;;;;;;;;;;5263791;28;20067;-73
2024/01/31 11:47:06;;;;;;;15.75;11.10;;;;;;;;;;5262772;28;20039;-73
2024/01/31 11:49:37;;;;;;;11.38;10.10;;;;;;;;;;5263363;28;20037;-72
2024/01/31 11:52:08;;;;;;;11.35;9.88;;;;;;;;;;5263314;28;20029;-73
2024/01/31 11:54:40;;;;;;;11.55;10.35;;;;;;;;;;5262566;28;20060;-73
2024/01/31 11:57:11;;;;;;;11.07;9.48;;;;;;;;;;5263144;28;20044;-74
2024/01/31 11:59:42;;;;;;;12.85;8.95;;;;;;;;;;5262590;28;20025;-74
2024/01/31 12:02:14;;;;;;;10.10;8.65;;;;;;;;;;5263139;28;20072;-73
2024/01/31 12:04:55;;;;;;;9.63;8.25;;;;;;;;;;5263346;28;20031;-73
2024/01/31 12:07:27;;;;;;;10.70;8.02;;;;;;;;;;5262004;28;20472;-72
2024/01/31 12:09:59;;;;;;;8.52;7.43;;;;;;;;;;5263136;28;20035;-74
2024/01/31 12:12:31;;;;;;;10.65;8.20;;;;;;;;;;5262920;28;20013;-73
2024/01/31 12:15:03;;;;;;;9.18;6.75;;;;;;;;;;5261968;28;20029;-73
2024/01/31 12:17:34;;;;;;;8.23;6.97;;;;;;;;;;5262877;28;20101;-79
2024/01/31 12:20:08;;;;;;;6.85;6.15;;;;;;;;;;5261954;28;20083;-77
2024/01/31 12:22:40;;;;;;;7.40;5.32;;;;;;;;;;5261937;28;20017;-78
2024/01/31 12:25:11;;;;;;;6.03;5.43;;;;;;;;;;5262638;28;20429;-79
2024/01/31 12:27:43;;;;;;;7.18;5.35;;;;;;;;;;5262504;28;20025;-79
2024/01/31 12:30:14;;;;;;;7.03;5.10;;;;;;;;;;5262277;28;20104;-79
2024/01/31 12:32:45;;;;;;;7.38;4.90;;;;;;;;;;5262688;28;20484;-76
2024/01/31 12:35:18;;;;;;;6.00;5.30;;;;;;;;;;5261481;28;20083;-79
2024/01/31 12:37:49;;;;;;;4.45;4.05;;;;;;;;;;5262430;28;20013;-79
2024/01/31 12:40:20;;;;;;;4.80;3.60;;;;;;;;;;5262241;28;20087;-79
2024/01/31 12:42:52;;;;;;;5.13;3.63;;;;;;;;;;5261809;28;20021;-82
2024/01/31 12:45:23;;;;;;;5.20;4.65;;;;;;;;;;5262038;28;20032;-81
2024/01/31 12:47:54;;;;;;;4.10;3.70;;;;;;;;;;5262516;28;20021;-83
2024/01/31 12:50:25;;;;;;;5.90;4.00;;;;;;;;;;5261141;28;20031;-82
2024/01/31 12:52:56;;;;;;;4.05;3.63;;;;;;;;;;5262539;28;20388;-74
2024/01/31 12:55:28;;;;;;;3.88;3.22;;;;;;;;;;5261752;28;20033;-79
2024/01/31 12:57:59;;;;;;;5.03;3.35;;;;;;;;;;5261099;28;20120;-75
2024/01/31 13:00:30;;;;;;;4.55;3.05;;;;;;;;;;5261693;28;20025;-75
2024/01/31 13:03:02;;;;;;;4.50;3.70;;;;;;;;;;5261218;28;20021;-75
2024/01/31 13:05:33;;;;;;;5.38;2.90;;;;;;;;;;5261826;28;20021;-75
2024/01/31 13:08:04;;;;;;;5.40;2.45;;;;;;;;;;5261668;28;20096;-75
2024/01/31 13:10:36;;;;;;;3.47;1.92;;;;;;;;;;5260612;28;20024;-74
2024/01/31 13:13:07;;;;;;;4.47;2.40;;;;;;;;;;5260947;28;20017;-75
2024/01/31 13:15:38;;;;;;;3.25;1.60;;;;;;;;;;5261632;28;20060;-74
2024/01/31 13:18:09;;;;;;;2.92;1.08;;;;;;;;;;5260730;28;20017;-76
2024/01/31 13:20:41;;;;;;;4.05;1.25;;;;;;;;;;5261430;28;20032;-79
2024/01/31 13:23:12;;;;;;;3.85;0.90;;;;;;;;;;5264065;28;20017;-78
2024/01/31 13:25:43;;;;;;;2.38;0.93;;;;;;;;;;5261630;28;20021;-79
2024/01/31 13:28:16;;;;;;;2.20;0.80;;;;;;;;;;5261200;28;20104;-78
2024/01/31 13:30:47;;;;;;;1.60;0.63;;;;;;;;;;5261135;28;20099;-78
2024/01/31 13:33:18;;;;;;;2.75;0.90;;;;;;;;;;5260367;28;20112;-78
2024/01/31 13:35:50;;;;;;;1.58;0.80;;;;;;;;;;5261062;28;20345;-78
2024/01/31 13:38:22;;;;;;;4.10;1.23;;;;;;;;;;5260320;28;20044;-79
2024/01/31 13:40:54;;;;;;;3.33;0.80;;;;;;;;;;5261379;28;20056;-79
2024/01/31 13:43:25;;;;;;;2.28;0.90;;;;;;;;;;5260623;28;20048;-79
2024/01/31 13:45:56;;;;;;;2.45;0.73;;;;;;;;;;5260490;28;20369;-79
2024/01/31 13:48:27;;;;;;;3.13;0.60;;;;;;;;;;5260738;28;20091;-79
2024/01/31 13:50:58;;;;;;;2.28;0.65;;;;;;;;;;5261200;28;20476;-78
2024/01/31 13:53:30;;;;;;;1.42;0.60;;;;;;;;;;5259778;28;20025;-78
2024/01/31 13:56:02;;;;;;;2.38;0.60;;;;;;;;;;5260924;28;20407;-78
2024/01/31 13:58:34;;;;;;;3.05;0.60;;;;;;;;;;5260960;28;20480;-79
2024/01/31 14:01:05;;;;;;;1.98;0.40;;;;;;;;;;5259970;28;20048;-78
2024/01/31 14:03:36;;;;;;;1.65;0.73;;;;;;;;;;5260681;28;20036;-79
2024/01/31 14:06:07;;;;;;;3.78;0.68;;;;;;;;;;5260756;28;20468;-79
2024/01/31 14:08:38;;;;;;;2.22;0.60;;;;;;;;;;5259798;28;20103;-79
2024/01/31 14:11:12;;;;;;;1.75;0.65;;;;;;;;;;5260433;28;20486;-79
2024/01/31 14:13:43;;;;;;;2.80;0.60;;;;;;;;;;5259907;28;20529;-77
2024/01/31 14:16:15;;;;;;;1.83;0.60;;;;;;;;;;5260600;28;20033;-73
2024/01/31 14:18:46;;;;;;;2.00;0.50;;;;;;;;;;5260436;28;20013;-75
2024/01/31 14:21:17;;;;;;;1.70;0.47;;;;;;;;;;5259353;28;20037;-76
2024/01/31 14:23:48;;;;;;;2.75;0.90;;;;;;;;;;5260243;28;20052;-74
2024/01/31 14:26:20;;;;;;;2.20;0.50;;;;;;;;;;5260066;28;20028;-75
2024/01/31 14:28:51;;;;;;;2.63;0.75;;;;;;;;;;5259679;28;20013;-77
2024/01/31 14:31:23;;;;;;;2.05;0.50;;;;;;;;;;5259817;28;20478;-78
2024/01/31 14:33:54;;;;;;;2.08;0.40;;;;;;;;;;5260310;28;20025;-77
2024/01/31 14:36:25;;;;;;;2.55;0.40;;;;;;;;;;5259213;28;20456;-77
2024/01/31 14:38:56;;;;;;;2.97;0.40;;;;;;;;;;5260254;28;20028;-78
2024/01/31 14:41:28;;;;;;;2.05;0.60;;;;;;;;;;5259667;28;20443;-77
2024/01/31 14:43:59;;;;;;;2.35;0.40;;;;;;;;;;5263085;28;20091;-76
2024/01/31 14:46:30;;;;;;;2.15;0.40;;;;;;;;;;5263857;28;20104;-77
2024/01/31 14:49:02;;;;;;;2.00;0.40;;;;;;;;;;5263539;28;20031;-76
2024/01/31 14:51:33;;;;;;;1.98;0.38;;;;;;;;;;5264420;28;20426;-76
2024/01/31 14:54:10;;;;;;;2.58;0.40;;;;;;;;;;5264386;28;20029;-76
2024/01/31 14:56:48;;;;;;;2.08;0.32;;;;;;;;;;5263412;28;20436;-76
2024/01/31 14:59:20;;;;;;;2.00;0.40;;;;;;;;;;5263995;28;20033;-76